Time;durP1;ratioP1;P1;durP2;ratioP2;P2;SDS_P1;SDS_P2;PMS_P1;PMS_P2;Temp;Humidity;BMP_temperature;BMP_pressure;BME280_temperature;BME280_humidity;BME280_pressure;Samples;Min_cycle;Max_cycle;Signal;HPM_P1;HPM_P2
2023/01/30 00:01:44;;;;;;;20.45;7.22;;;6.90;99.90;;;;;;5107732;27;20084;-81
2023/01/30 00:04:11;;;;;;;19.42;7.13;;;8.00;99.90;;;;;;5057080;27;20080;-81
2023/01/30 00:06:38;;;;;;;22.48;6.88;;;7.60;99.90;;;;;;5108556;27;20094;-80
2023/01/30 00:09:04;;;;;;;26.30;7.07;;;7.80;99.90;;;;;;5073609;27;20047;-80
2023/01/30 00:11:32;;;;;;;14.65;6.57;;;7.00;99.90;;;;;;5090629;27;20039;-81
2023/01/30 00:13:58;;;;;;;15.23;5.97;;;6.30;99.90;;;;;;5091114;27;20127;-81
2023/01/30 00:16:24;;;;;;;18.70;6.80;;;7.30;99.90;;;;;;5089924;27;20121;-81
2023/01/30 00:18:50;;;;;;;16.30;5.63;;;7.00;99.90;;;;;;5108029;27;20498;-81
2023/01/30 00:21:16;;;;;;;12.20;5.32;;;6.90;99.90;;;;;;5089933;27;20042;-81
2023/01/30 00:23:43;;;;;;;19.85;5.70;;;7.80;99.90;;;;;;5107556;27;20498;-81
2023/01/30 00:26:09;;;;;;;11.52;5.95;;;8.00;99.90;;;;;;5106951;27;20091;-81
2023/01/30 00:28:35;;;;;;;12.90;5.78;;;7.00;99.90;;;;;;5090202;27;20547;-81
2023/01/30 00:31:01;;;;;;;12.30;5.22;;;7.30;99.90;;;;;;5106921;27;20084;-81
2023/01/30 00:33:27;;;;;;;15.95;5.32;;;8.10;99.90;;;;;;5106362;27;20093;-81
2023/01/30 00:35:55;;;;;;;10.98;4.85;;;8.10;99.90;;;;;;5125999;27;20047;-81
2023/01/30 00:38:22;;;;;;;21.00;5.18;;;7.60;99.90;;;;;;5106599;27;20122;-81
2023/01/30 00:40:48;;;;;;;13.75;4.93;;;7.10;99.90;;;;;;5107212;27;20035;-81
2023/01/30 00:48:48;;;;;;;10.27;3.95;;;7.10;99.90;;;;;;5107506;28;20047;-82
2023/01/30 00:51:14;;;;;;;13.98;4.30;;;7.60;99.90;;;;;;5072936;28;20035;-81
2023/01/30 00:53:40;;;;;;;10.25;4.78;;;7.10;99.90;;;;;;5073934;28;20558;-82
2023/01/30 00:56:06;;;;;;;13.98;4.45;;;7.00;99.90;;;;;;5106537;28;20591;-81
2023/01/30 00:58:32;;;;;;;10.43;4.20;;;7.00;99.90;;;;;;5106800;28;20047;-83
2023/01/30 01:00:58;;;;;;;12.23;4.05;;;7.00;99.90;;;;;;5089801;28;20500;-83
2023/01/30 01:03:24;;;;;;;9.30;3.80;;;8.20;99.90;;;;;;5106234;28;20050;-83
2023/01/30 01:05:50;;;;;;;16.00;4.53;;;7.20;99.90;;;;;;5090091;28;20047;-82
2023/01/30 01:08:15;;;;;;;15.85;4.43;;;8.30;99.90;;;;;;5106590;28;20039;-82
2023/01/30 01:10:41;;;;;;;11.40;4.00;;;6.90;99.90;;;;;;5107142;28;20036;-83
2023/01/30 01:13:09;;;;;;;7.70;3.35;;;7.10;99.90;;;;;;5073790;27;20046;-83
2023/01/30 01:15:35;;;;;;;11.45;4.25;;;7.70;99.90;;;;;;5077717;27;20083;-84
2023/01/30 01:18:00;;;;;;;10.05;3.70;;;6.80;99.90;;;;;;5094040;27;20078;-82
2023/01/30 01:20:26;;;;;;;11.63;3.85;;;6.80;99.90;;;;;;5076317;27;20031;-83
2023/01/30 01:22:54;;;;;;;10.43;3.40;;;7.80;99.90;;;;;;5111124;27;20085;-83
2023/01/30 01:25:21;;;;;;;8.68;3.55;;;6.80;99.90;;;;;;5110152;27;20054;-83
2023/01/30 01:27:47;;;;;;;10.85;3.17;;;6.80;99.90;;;;;;5111534;27;20107;-82
2023/01/30 01:30:13;;;;;;;9.45;3.80;;;7.70;99.90;;;;;;5093489;27;20125;-83
2023/01/30 01:32:39;;;;;;;6.10;3.20;;;6.80;99.90;;;;;;5110919;27;20078;-82
2023/01/30 01:35:05;;;;;;;15.02;3.35;;;7.80;99.90;;;;;;5110910;27;20082;-82
2023/01/30 01:37:31;;;;;;;9.75;3.10;;;6.80;99.90;;;;;;5093708;27;20047;-82
2023/01/30 01:42:41;;;;;;;6.43;2.80;;;7.30;99.90;;;;;;5095641;27;20096;-82
2023/01/30 01:45:15;;;;;;;9.27;3.20;;;6.80;99.90;;;;;;5111039;27;20042;-83
2023/01/30 01:48:04;;;;;;;9.40;2.90;;;6.90;99.90;;;;;;5093123;27;20059;-81
2023/01/30 01:50:41;;;;;;;6.38;3.70;;;6.90;99.90;;;;;;5093843;27;20047;-81
2023/01/30 01:53:10;;;;;;;10.65;4.32;;;6.90;99.90;;;;;;5111013;27;20104;-81
2023/01/30 01:55:39;;;;;;;11.07;3.25;;;6.90;99.90;;;;;;5093206;27;20051;-82
2023/01/30 01:58:11;;;;;;;12.70;4.57;;;7.10;99.90;;;;;;5110183;27;20486;-81
2023/01/30 02:00:37;;;;;;;11.95;4.35;;;6.90;99.90;;;;;;5110409;27;20047;-81
2023/01/30 02:03:09;;;;;;;12.43;4.18;;;7.50;99.90;;;;;;5075909;27;20452;-81
2023/01/30 02:05:40;;;;;;;12.82;4.13;;;7.00;99.90;;;;;;5110332;27;20035;-81
2023/01/30 02:08:20;;;;;;;14.82;3.83;;;7.20;99.90;;;;;;5109670;27;20043;-82
2023/01/30 02:11:20;;;;;;;17.00;4.78;;;7.00;99.90;;;;;;5110090;27;20047;-81
2023/01/30 02:13:47;;;;;;;10.30;3.70;;;7.00;99.90;;;;;;5093078;27;20061;-81
2023/01/30 02:16:14;;;;;;;12.75;4.30;;;7.30;99.90;;;;;;5109380;27;20386;-83
2023/01/30 02:18:42;;;;;;;21.73;4.22;;;7.40;99.90;;;;;;5110239;27;20077;-81
2023/01/30 02:21:41;;;;;;;16.13;3.92;;;7.60;99.90;;;;;;5092386;27;20071;-82
2023/01/30 02:24:28;;;;;;;14.27;4.40;;;7.00;99.90;;;;;;5092112;27;20055;-82
2023/01/30 02:27:20;;;;;;;15.70;4.38;;;7.00;99.90;;;;;;5092643;27;20103;-82
2023/01/30 02:30:05;;;;;;;19.50;4.95;;;7.10;99.90;;;;;;5103902;27;20101;-82
2023/01/30 02:32:36;;;;;;;25.70;5.35;;;7.10;99.90;;;;;;5110028;27;20082;-82
2023/01/30 02:35:08;;;;;;;27.17;4.43;;;7.10;99.90;;;;;;5109213;27;20042;-82
2023/01/30 02:37:58;;;;;;;27.13;3.95;;;7.10;99.90;;;;;;5091638;27;20273;-81
2023/01/30 02:40:46;;;;;;;25.50;4.45;;;7.10;99.90;;;;;;5109876;27;20039;-81
2023/01/30 02:43:25;;;;;;;20.25;4.38;;;7.10;99.90;;;;;;5091921;27;20047;-82
2023/01/30 02:46:39;;;;;;;25.23;4.82;;;7.20;99.90;;;;;;5109059;27;20035;-81
2023/01/30 02:49:12;;;;;;;22.20;3.88;;;7.20;99.90;;;;;;4991447;28;20045;-81
2023/01/30 02:51:39;;;;;;;32.55;4.50;;;7.20;99.90;;;;;;5007831;28;20120;-81
2023/01/30 02:54:11;;;;;;;27.35;4.97;;;7.20;99.90;;;;;;5060564;27;20339;-81
2023/01/30 02:56:51;;;;;;;26.45;4.90;;;7.20;99.90;;;;;;5092651;27;20043;-81
2023/01/30 02:59:36;;;;;;;20.27;4.13;;;7.40;99.90;;;;;;5091144;27;20039;-80
2023/01/30 03:02:26;;;;;;;30.45;4.85;;;7.20;99.90;;;;;;5109341;27;20075;-82
2023/01/30 03:05:26;;;;;;;22.13;4.07;;;7.20;99.90;;;;;;5091608;27;20096;-81
2023/01/30 03:08:02;;;;;;;23.00;3.58;;;7.20;99.90;;;;;;5108034;27;20046;-81
2023/01/30 03:10:42;;;;;;;20.73;4.03;;;7.20;99.90;;;;;;5091925;27;20051;-81
2023/01/30 03:13:11;;;;;;;21.67;3.35;;;7.20;99.90;;;;;;5108852;27;20046;-81
2023/01/30 03:15:42;;;;;;;19.27;3.53;;;7.20;99.90;;;;;;5091496;27;20043;-81
2023/01/30 03:18:08;;;;;;;23.55;3.85;;;7.20;99.90;;;;;;5108783;27;20058;-81
2023/01/30 03:20:39;;;;;;;24.90;4.28;;;7.20;99.90;;;;;;5074341;27;20054;-81
2023/01/30 03:23:05;;;;;;;17.85;4.28;;;7.10;99.90;;;;;;5109095;27;20055;-80
2023/01/30 03:25:32;;;;;;;20.85;2.53;;;7.10;99.90;;;;;;5108020;27;20051;-80
2023/01/30 03:28:01;;;;;;;27.90;4.30;;;7.10;99.90;;;;;;5108903;27;20455;-81
2023/01/30 03:30:26;;;;;;;22.33;2.72;;;7.00;99.90;;;;;;5091366;27;20458;-81
2023/01/30 03:32:52;;;;;;;13.52;3.65;;;7.00;99.90;;;;;;5091171;27;20047;-81
2023/01/30 03:35:18;;;;;;;14.20;2.88;;;7.00;99.90;;;;;;5091100;27;20039;-80
2023/01/30 03:37:44;;;;;;;28.98;3.47;;;7.00;99.90;;;;;;5072988;27;20051;-81
2023/01/30 03:40:15;;;;;;;16.30;3.17;;;6.90;99.90;;;;;;5109416;27;20403;-81
2023/01/30 03:42:42;;;;;;;22.63;3.72;;;6.90;99.90;;;;;;5108046;27;20039;-81
2023/01/30 03:45:08;;;;;;;29.52;3.92;;;6.90;99.90;;;;;;5091901;27;20047;-80
2023/01/30 03:47:34;;;;;;;19.05;4.07;;;6.90;99.90;;;;;;5090977;27;20130;-81
2023/01/30 03:49:59;;;;;;;21.63;3.63;;;6.80;99.90;;;;;;5125922;27;20130;-80
2023/01/30 03:52:25;;;;;;;18.83;3.10;;;6.80;99.90;;;;;;5107367;27;20039;-80
2023/01/30 03:54:51;;;;;;;16.75;3.22;;;6.70;99.90;;;;;;5106226;27;20126;-81
2023/01/30 03:57:17;;;;;;;22.05;3.17;;;7.00;99.90;;;;;;5108845;27;20043;-81
2023/01/30 03:59:42;;;;;;;22.95;3.53;;;6.60;99.90;;;;;;5090566;27;20062;-80
2023/01/30 04:02:08;;;;;;;22.30;2.92;;;6.60;99.90;;;;;;5126424;27;20035;-81
2023/01/30 04:04:34;;;;;;;19.90;3.75;;;6.50;99.90;;;;;;5125732;27;20406;-80
2023/01/30 04:07:00;;;;;;;24.98;3.58;;;6.60;99.90;;;;;;5090542;27;20505;-81
2023/01/30 04:09:26;;;;;;;28.20;3.70;;;7.50;99.90;;;;;;5125833;27;20131;-81
2023/01/30 04:11:52;;;;;;;25.20;2.97;;;5.50;99.90;;;;;;5124734;27;20648;-80
2023/01/30 04:14:18;;;;;;;19.38;3.55;;;6.40;99.90;;;;;;5107339;27;20043;-80
2023/01/30 04:16:44;;;;;;;21.08;3.05;;;7.30;99.90;;;;;;5124669;27;20074;-80
2023/01/30 04:19:10;;;;;;;22.02;3.20;;;6.40;99.90;;;;;;5107259;27;20514;-80
2023/01/30 04:21:36;;;;;;;22.98;3.10;;;7.30;99.90;;;;;;5106472;27;20054;-79
2023/01/30 04:24:02;;;;;;;18.02;3.08;;;6.30;99.90;;;;;;5124978;27;20051;-81
2023/01/30 04:26:28;;;;;;;17.73;3.40;;;6.30;99.90;;;;;;5106935;27;20050;-80
2023/01/30 04:28:53;;;;;;;22.88;4.50;;;7.20;99.90;;;;;;5105702;27;20047;-80
2023/01/30 04:31:19;;;;;;;27.23;3.80;;;6.20;99.90;;;;;;5073161;27;20547;-79
2023/01/30 04:33:45;;;;;;;21.83;4.60;;;6.50;99.90;;;;;;5105823;27;20047;-79
2023/01/30 04:36:11;;;;;;;16.23;2.83;;;7.20;99.90;;;;;;5106839;28;20046;-79
2023/01/30 04:38:37;;;;;;;44.05;4.53;;;7.40;99.90;;;;;;5124739;27;20482;-80
2023/01/30 04:41:04;;;;;;;19.55;3.08;;;6.90;99.90;;;;;;5125417;27;20039;-79
2023/01/30 04:43:30;;;;;;;25.45;3.20;;;6.00;99.90;;;;;;5125136;27;20043;-80
2023/01/30 04:45:56;;;;;;;31.20;4.53;;;6.00;99.90;;;;;;5124728;27;20046;-79
2023/01/30 04:48:23;;;;;;;27.15;3.78;;;5.90;99.90;;;;;;5125338;27;20047;-79
2023/01/30 04:50:52;;;;;;;26.10;3.25;;;6.30;99.90;;;;;;5105798;28;20051;-80
2023/01/30 04:53:19;;;;;;;23.80;3.78;;;5.40;99.90;;;;;;5107059;28;20043;-79
2023/01/30 04:55:45;;;;;;;21.38;3.10;;;5.90;99.90;;;;;;5124958;28;20039;-80
2023/01/30 04:58:11;;;;;;;23.70;3.53;;;5.90;99.90;;;;;;5125128;28;20039;-79
2023/01/30 05:00:37;;;;;;;35.33;4.32;;;6.80;99.90;;;;;;5089565;28;20054;-79
2023/01/30 05:03:03;;;;;;;17.80;3.40;;;5.90;99.90;;;;;;5106194;28;20057;-79
2023/01/30 05:05:29;;;;;;;25.02;4.68;;;6.80;99.90;;;;;;5107455;28;20070;-80
2023/01/30 05:07:55;;;;;;;26.85;3.10;;;5.80;99.90;;;;;;5105246;28;20043;-79
2023/01/30 05:10:21;;;;;;;24.60;3.97;;;5.80;99.90;;;;;;5072825;28;20047;-80
2023/01/30 05:12:47;;;;;;;26.25;4.88;;;5.80;99.90;;;;;;5124814;28;20037;-80
2023/01/30 05:15:13;;;;;;;31.33;4.50;;;5.80;99.90;;;;;;5125519;27;20051;-80
2023/01/30 05:17:39;;;;;;;20.23;3.10;;;5.80;99.90;;;;;;5106866;28;20043;-80
2023/01/30 05:20:08;;;;;;;30.52;3.97;;;6.30;99.90;;;;;;5107108;28;20043;-80
2023/01/30 05:22:34;;;;;;;22.00;3.28;;;5.80;99.90;;;;;;5125912;28;20046;-80
2023/01/30 05:25:00;;;;;;;28.75;3.75;;;5.80;99.90;;;;;;5124252;28;20051;-79
2023/01/30 05:27:25;;;;;;;28.65;3.92;;;5.80;99.90;;;;;;5073365;28;20042;-80
2023/01/30 05:29:51;;;;;;;16.10;2.63;;;5.70;99.90;;;;;;5106538;28;20035;-80
2023/01/30 05:32:18;;;;;;;28.23;4.07;;;5.90;99.90;;;;;;5107070;28;20479;-80
2023/01/30 05:34:44;;;;;;;30.20;4.20;;;6.90;99.90;;;;;;5106847;28;20095;-79
2023/01/30 05:37:11;;;;;;;27.25;3.70;;;5.80;99.90;;;;;;5073081;28;20457;-79
2023/01/30 05:39:37;;;;;;;26.00;3.85;;;5.00;99.90;;;;;;5107168;28;20039;-79
2023/01/30 05:42:03;;;;;;;31.90;4.65;;;5.60;99.90;;;;;;5105783;28;20043;-80
2023/01/30 05:44:29;;;;;;;22.40;3.30;;;5.60;99.90;;;;;;5090137;28;20054;-80
2023/01/30 05:46:55;;;;;;;22.15;3.28;;;5.60;99.90;;;;;;5106198;28;20043;-80
2023/01/30 05:49:21;;;;;;;29.67;3.85;;;6.40;99.90;;;;;;5125637;28;20070;-80
2023/01/30 05:51:46;;;;;;;38.35;4.95;;;5.60;99.90;;;;;;5089589;28;20047;-80
2023/01/30 05:54:12;;;;;;;31.15;3.80;;;6.40;99.90;;;;;;5125318;28;20138;-81
2023/01/30 05:56:38;;;;;;;25.13;4.50;;;6.10;99.90;;;;;;5106845;28;20473;-80
2023/01/30 05:59:04;;;;;;;29.52;3.15;;;6.30;99.90;;;;;;5106145;27;20067;-81
2023/01/30 06:01:30;;;;;;;24.65;3.88;;;5.70;99.90;;;;;;5110873;27;20502;-81
2023/01/30 06:03:57;;;;;;;31.30;3.78;;;7.00;99.90;;;;;;5092838;27;20095;-80
2023/01/30 06:06:23;;;;;;;39.72;4.28;;;7.00;99.90;;;;;;5111422;27;20043;-79
2023/01/30 06:08:54;;;;;;;32.75;5.68;;;5.70;99.90;;;;;;5110612;27;20062;-81
2023/01/30 06:11:20;;;;;;;25.10;3.22;;;6.50;99.90;;;;;;5092813;27;20047;-80
2023/01/30 06:13:46;;;;;;;34.22;4.05;;;5.70;99.90;;;;;;5093555;27;20114;-79
2023/01/30 06:16:13;;;;;;;21.00;3.88;;;5.80;99.90;;;;;;5109222;27;20050;-79
2023/01/30 06:18:39;;;;;;;25.75;4.03;;;7.10;99.90;;;;;;5110164;27;20047;-79
2023/01/30 06:21:05;;;;;;;24.50;3.33;;;6.80;99.90;;;;;;5109246;27;20130;-80
2023/01/30 06:23:31;;;;;;;20.83;3.22;;;6.70;99.90;;;;;;5092920;27;20055;-80
2023/01/30 06:25:57;;;;;;;21.48;3.13;;;7.00;99.90;;;;;;5110161;27;20051;-80
2023/01/30 06:28:24;;;;;;;19.27;3.13;;;6.00;99.90;;;;;;5109672;27;20047;-79
2023/01/30 06:30:51;;;;;;;37.47;4.22;;;6.00;99.90;;;;;;5092524;27;20142;-79
2023/01/30 06:33:17;;;;;;;26.42;3.75;;;6.00;99.90;;;;;;5092129;27;20086;-80
2023/01/30 06:35:43;;;;;;;24.05;3.50;;;6.00;99.90;;;;;;5093202;27;20584;-80
2023/01/30 06:38:10;;;;;;;25.30;5.35;;;6.00;99.90;;;;;;5109126;27;20039;-80
2023/01/30 06:40:40;;;;;;;13.80;2.72;;;6.10;99.90;;;;;;5110160;27;20047;-82
2023/01/30 06:43:06;;;;;;;35.15;3.83;;;6.10;99.90;;;;;;5110204;27;20082;-81
2023/01/30 06:45:32;;;;;;;22.80;3.22;;;6.90;99.90;;;;;;5111284;27;20493;-78
2023/01/30 06:47:58;;;;;;;39.75;6.00;;;7.20;99.90;;;;;;5093678;27;20046;-82
2023/01/30 06:50:26;;;;;;;33.17;4.68;;;6.60;99.90;;;;;;5092769;27;20043;-82
2023/01/30 06:52:52;;;;;;;24.27;3.13;;;6.20;99.90;;;;;;5092845;27;20092;-81
2023/01/30 06:55:21;;;;;;;32.28;5.03;;;6.10;99.90;;;;;;5108868;27;20046;-81
2023/01/30 06:57:48;;;;;;;27.77;3.72;;;6.10;99.90;;;;;;5109517;27;20620;-81
2023/01/30 07:00:16;;;;;;;35.25;3.70;;;6.20;99.90;;;;;;5109005;27;20051;-82
2023/01/30 07:02:42;;;;;;;22.45;3.90;;;6.10;99.90;;;;;;5091862;27;20050;-81
2023/01/30 07:05:09;;;;;;;27.33;5.15;;;6.10;99.90;;;;;;5092273;27;20039;-82
2023/01/30 07:07:35;;;;;;;20.77;3.58;;;7.40;99.90;;;;;;5108365;27;20053;-82
2023/01/30 07:10:02;;;;;;;31.23;5.60;;;6.20;99.90;;;;;;5092201;27;20092;-81
2023/01/30 07:12:27;;;;;;;33.00;4.05;;;6.50;99.90;;;;;;5107379;27;20036;-82
2023/01/30 07:14:53;;;;;;;26.70;4.25;;;6.10;99.90;;;;;;5109308;27;20039;-82
2023/01/30 07:17:20;;;;;;;31.63;3.80;;;7.20;99.90;;;;;;5074915;27;20142;-81
2023/01/30 07:19:46;;;;;;;23.83;3.70;;;6.20;99.90;;;;;;5074780;27;20090;-85
2023/01/30 07:22:12;;;;;;;23.60;4.85;;;6.20;99.90;;;;;;5074740;27;20074;-82
2023/01/30 07:24:41;;;;;;;28.50;5.50;;;6.20;99.90;;;;;;5090718;27;20085;-82
2023/01/30 07:27:11;;;;;;;26.10;3.47;;;6.10;99.90;;;;;;5092049;27;20058;-81
2023/01/30 07:29:38;;;;;;;24.45;4.57;;;7.50;99.90;;;;;;5108086;27;20047;-81
2023/01/30 07:32:13;;;;;;;32.05;4.85;;;6.20;99.90;;;;;;5091973;27;20045;-82
2023/01/30 07:34:39;;;;;;;30.98;4.55;;;6.20;99.90;;;;;;5107969;27;20482;-82
2023/01/30 07:37:04;;;;;;;30.88;4.53;;;7.10;99.90;;;;;;5090806;27;20133;-83
2023/01/30 07:39:30;;;;;;;38.25;3.08;;;6.30;99.90;;;;;;5108130;27;20498;-82
2023/01/30 07:41:56;;;;;;;23.88;4.72;;;6.30;99.90;;;;;;5090131;27;20440;-83
2023/01/30 07:44:21;;;;;;;25.52;3.83;;;7.40;99.90;;;;;;5074565;27;20054;-86
2023/01/30 07:46:47;;;;;;;29.77;3.85;;;6.40;99.90;;;;;;5090982;27;20230;-82
2023/01/30 07:49:13;;;;;;;31.92;4.70;;;6.30;99.90;;;;;;5091233;27;20043;-82
2023/01/30 07:51:38;;;;;;;23.00;3.60;;;6.30;99.90;;;;;;5107684;27;20043;-82
2023/01/30 07:54:04;;;;;;;21.00;3.60;;;6.40;99.90;;;;;;5074569;27;20087;-82
2023/01/30 07:56:30;;;;;;;23.67;3.13;;;6.40;99.90;;;;;;5108259;27;20053;-82
2023/01/30 07:58:56;;;;;;;26.42;3.50;;;6.40;99.90;;;;;;5057080;27;20043;-82
2023/01/30 08:01:22;;;;;;;28.13;3.70;;;7.60;99.90;;;;;;5091622;27;20487;-82
2023/01/30 08:03:48;;;;;;;35.08;3.95;;;6.40;99.90;;;;;;5107280;27;20088;-82
2023/01/30 08:06:17;;;;;;;23.42;3.72;;;6.50;99.90;;;;;;5074556;27;20088;-83
2023/01/30 08:08:43;;;;;;;29.55;3.80;;;6.90;99.90;;;;;;5107760;27;20126;-83
2023/01/30 08:11:09;;;;;;;30.23;3.55;;;6.50;99.90;;;;;;5107850;27;20051;-82
2023/01/30 08:13:35;;;;;;;24.15;4.88;;;7.80;99.90;;;;;;5108447;27;20432;-82
2023/01/30 08:16:03;;;;;;;30.25;4.45;;;7.30;99.90;;;;;;5107122;27;20051;-82
2023/01/30 08:18:30;;;;;;;26.00;4.10;;;7.40;99.90;;;;;;5091744;27;20058;-82
2023/01/30 08:21:00;;;;;;;24.70;3.50;;;6.60;99.90;;;;;;5090342;27;20133;-83
2023/01/30 08:23:26;;;;;;;24.30;4.05;;;6.60;99.90;;;;;;5074074;27;20050;-82
2023/01/30 08:25:56;;;;;;;31.98;3.65;;;7.30;99.90;;;;;;5107092;27;20078;-82
2023/01/30 08:28:22;;;;;;;25.95;4.05;;;6.90;99.90;;;;;;5073950;27;20057;-82
2023/01/30 08:30:48;;;;;;;25.00;5.22;;;6.60;99.90;;;;;;5090531;27;20376;-82
2023/01/30 08:33:15;;;;;;;24.40;3.80;;;6.60;99.90;;;;;;5089361;27;20513;-82
2023/01/30 08:35:41;;;;;;;34.47;4.45;;;5.90;99.90;;;;;;5090701;27;20553;-82
2023/01/30 08:38:07;;;;;;;29.48;4.75;;;7.20;99.90;;;;;;5089783;27;20039;-83
2023/01/30 08:40:34;;;;;;;16.38;3.88;;;6.70;99.90;;;;;;5107772;27;20496;-82
2023/01/30 08:43:00;;;;;;;23.77;3.03;;;6.70;99.90;;;;;;5073731;27;20438;-83
2023/01/30 08:45:26;;;;;;;27.77;4.72;;;6.70;99.90;;;;;;5107000;28;20502;-82
2023/01/30 08:47:51;;;;;;;25.80;4.20;;;6.80;99.90;;;;;;5090385;27;20588;-82
2023/01/30 08:50:17;;;;;;;27.13;3.95;;;7.40;99.90;;;;;;5106251;28;20099;-83
2023/01/30 08:52:43;;;;;;;28.92;4.15;;;8.00;99.90;;;;;;5073815;28;20055;-83
2023/01/30 08:55:09;;;;;;;25.85;3.42;;;6.80;99.90;;;;;;5089615;28;20043;-83
2023/01/30 08:57:35;;;;;;;27.83;3.63;;;6.80;99.90;;;;;;5107489;28;20051;-82
2023/01/30 09:00:01;;;;;;;22.00;5.70;;;6.90;99.90;;;;;;5073016;28;20046;-83
2023/01/30 09:02:26;;;;;;;31.90;4.32;;;6.90;99.90;;;;;;5073624;28;20035;-83
2023/01/30 09:04:52;;;;;;;31.05;4.28;;;6.90;99.90;;;;;;5056356;28;20505;-84
2023/01/30 09:07:18;;;;;;;24.98;3.67;;;7.40;99.90;;;;;;5106935;28;20047;-83
2023/01/30 09:09:44;;;;;;;33.88;4.68;;;7.90;99.90;;;;;;5090254;28;20039;-83
2023/01/30 09:12:09;;;;;;;22.42;3.15;;;7.00;99.90;;;;;;5089208;28;20177;-83
2023/01/30 09:14:35;;;;;;;24.38;4.05;;;7.00;99.90;;;;;;5056525;27;20043;-82
2023/01/30 09:17:01;;;;;;;24.25;3.85;;;7.00;99.90;;;;;;5056268;28;20035;-81
2023/01/30 09:19:27;;;;;;;21.83;3.75;;;7.00;99.90;;;;;;5073069;28;20039;-81
2023/01/30 09:21:54;;;;;;;38.10;4.97;;;7.00;99.90;;;;;;5072938;28;20071;-81
2023/01/30 09:24:25;;;;;;;35.15;5.18;;;7.90;99.90;;;;;;5085735;28;20047;-81
2023/01/30 09:26:56;;;;;;;30.55;3.85;;;7.00;99.90;;;;;;5087083;28;20043;-80
2023/01/30 09:29:22;;;;;;;40.95;4.93;;;7.10;99.90;;;;;;5085467;28;20074;-81
2023/01/30 09:31:48;;;;;;;23.98;4.65;;;7.00;99.90;;;;;;5086829;28;20133;-81
2023/01/30 09:34:14;;;;;;;36.45;5.53;;;7.10;99.90;;;;;;5104061;28;20429;-81
2023/01/30 09:36:40;;;;;;;28.42;3.65;;;7.00;99.90;;;;;;5090787;28;20390;-81
2023/01/30 09:39:06;;;;;;;36.28;5.70;;;7.10;99.90;;;;;;5090503;28;20040;-82
2023/01/30 09:41:46;;;;;;;32.60;3.83;;;8.10;99.90;;;;;;5107035;28;20545;-82
2023/01/30 09:44:39;;;;;;;28.38;3.65;;;6.90;99.90;;;;;;5107144;28;20104;-82
2023/01/30 09:47:12;;;;;;;32.05;4.72;;;6.90;99.90;;;;;;5090209;28;20528;-81
2023/01/30 09:50:16;;;;;;;30.85;4.63;;;7.00;99.90;;;;;;5089764;28;20577;-81
2023/01/30 09:53:06;;;;;;;32.20;3.88;;;7.00;99.90;;;;;;5056102;28;20051;-82
2023/01/30 09:55:38;;;;;;;33.30;3.72;;;7.00;99.90;;;;;;5089448;28;20075;-82
2023/01/30 09:58:04;;;;;;;22.80;4.38;;;7.10;99.90;;;;;;5106646;28;20039;-82
2023/01/30 10:00:34;;;;;;;32.95;6.38;;;7.30;99.90;;;;;;5090179;28;20232;-81
2023/01/30 10:03:18;;;;;;;27.73;6.50;;;8.20;99.90;;;;;;5089110;28;20046;-82
2023/01/30 10:05:48;;;;;;;29.02;4.05;;;7.00;99.90;;;;;;5107445;28;20487;-81
2023/01/30 10:08:38;;;;;;;34.45;3.85;;;7.40;99.90;;;;;;5108624;28;20486;-82
2023/01/30 10:11:41;;;;;;;25.27;4.72;;;7.40;99.90;;;;;;5108402;28;20391;-82
2023/01/30 10:14:12;;;;;;;32.13;4.75;;;7.50;99.90;;;;;;5092371;28;20051;-82
2023/01/30 10:17:10;;;;;;;36.05;4.70;;;7.60;99.90;;;;;;5107292;28;20059;-81
2023/01/30 10:19:51;;;;;;;24.85;4.53;;;7.70;99.90;;;;;;5107437;28;20043;-82
2023/01/30 10:22:40;;;;;;;30.63;3.97;;;7.80;99.90;;;;;;5107396;28;20032;-81
2023/01/30 10:25:30;;;;;;;20.98;3.40;;;7.70;99.90;;;;;;5107781;28;20063;-82
2023/01/30 10:28:24;;;;;;;11.93;1.70;;;7.50;99.90;;;;;;5091305;28;20268;-82
2023/01/30 10:30:51;;;;;;;;;;;7.10;99.90;;;;;;5106956;28;20574;-81
2023/01/30 10:33:35;;;;;;;11.68;1.45;;;6.80;99.90;;;;;;5089342;28;19927;-82
2023/01/30 10:36:10;;;;;;;10.60;1.50;;;6.70;99.90;;;;;;5106780;28;20441;-81
2023/01/30 10:38:50;;;;;;;10.55;1.08;;;6.50;99.90;;;;;;5106224;28;20124;-81
2023/01/30 10:41:25;;;;;;;5.85;1.08;;;6.50;99.90;;;;;;5088690;28;20040;-81
2023/01/30 10:44:11;;;;;;;9.52;1.30;;;6.20;99.90;;;;;;5088970;28;20134;-81
2023/01/30 10:47:14;;;;;;;7.00;0.90;;;6.10;99.90;;;;;;5088603;28;20116;-81
2023/01/30 10:49:49;;;;;;;9.82;0.90;;;6.10;99.90;;;;;;5105521;28;20098;-81
2023/01/30 10:52:34;;;;;;;7.28;1.00;;;6.20;99.90;;;;;;5106390;28;20120;-81
2023/01/30 10:55:21;;;;;;;7.22;0.85;;;7.30;99.90;;;;;;5088046;28;20050;-82
2023/01/30 10:58:25;;;;;;;9.43;1.52;;;6.60;99.90;;;;;;5088735;28;20050;-81
2023/01/30 11:01:15;;;;;;;15.85;1.70;;;6.80;99.90;;;;;;5105460;28;20047;-82
2023/01/30 11:03:49;;;;;;;16.27;2.42;;;7.00;99.90;;;;;;5088394;28;20340;-82
2023/01/30 11:06:18;;;;;;;9.07;1.60;;;7.10;99.90;;;;;;5088660;28;20043;-81
2023/01/30 11:08:44;;;;;;;22.33;2.58;;;7.90;99.90;;;;;;5104991;28;20059;-82
2023/01/30 11:11:30;;;;;;;31.35;4.68;;;7.30;99.90;;;;;;5088904;28;20069;-82
2023/01/30 11:14:07;;;;;;;17.02;3.58;;;7.40;99.90;;;;;;5105455;28;20047;-82
2023/01/30 11:16:43;;;;;;;21.17;2.63;;;7.50;99.90;;;;;;5071486;28;20086;-82
2023/01/30 11:19:09;;;;;;;18.80;2.30;;;7.50;99.90;;;;;;5105163;28;20064;-82
2023/01/30 11:21:35;;;;;;;16.10;2.95;;;7.60;99.90;;;;;;5087983;28;20103;-82
2023/01/30 11:24:16;;;;;;;16.50;2.20;;;8.80;99.90;;;;;;5070918;28;20052;-82
2023/01/30 11:26:42;;;;;;;17.58;2.60;;;7.80;99.90;;;;;;5088330;28;20062;-83
2023/01/30 11:29:23;;;;;;;25.65;3.15;;;8.10;99.90;;;;;;5087215;28;20043;-82
2023/01/30 11:31:50;;;;;;;19.58;2.60;;;8.10;99.90;;;;;;5105748;28;20411;-81
2023/01/30 11:34:17;;;;;;;25.80;3.33;;;8.90;99.90;;;;;;5104589;28;20044;-82
2023/01/30 11:36:46;;;;;;;21.20;3.00;;;8.80;99.90;;;;;;5088185;28;20517;-82
2023/01/30 11:39:11;;;;;;;24.60;5.53;;;8.10;99.90;;;;;;5105377;28;20556;-81
2023/01/30 11:41:41;;;;;;;19.25;3.00;;;8.00;99.90;;;;;;5104476;28;20058;-81
2023/01/30 11:44:09;;;;;;;12.55;1.95;;;8.00;99.90;;;;;;5088056;28;20047;-81
2023/01/30 11:46:37;;;;;;;18.33;2.58;;;7.90;99.90;;;;;;5087542;28;20049;-82
2023/01/30 11:49:11;;;;;;;13.32;2.72;;;7.90;99.90;;;;;;5087769;28;20487;-82
2023/01/30 11:51:38;;;;;;;12.70;2.35;;;8.70;99.90;;;;;;5087592;28;20131;-81
2023/01/30 11:54:11;;;;;;;15.55;1.90;;;8.20;99.90;;;;;;5104168;28;20044;-82
2023/01/30 11:56:52;;;;;;;15.77;2.65;;;7.90;99.90;;;;;;5087344;28;20062;-82
2023/01/30 11:59:37;;;;;;;11.52;2.30;;;8.00;99.90;;;;;;5104040;28;20043;-82
2023/01/30 12:02:28;;;;;;;19.33;4.57;;;8.10;99.90;;;;;;5104977;28;20104;-81
2023/01/30 12:05:00;;;;;;;24.52;3.08;;;7.90;99.90;;;;;;5104315;28;20048;-81
2023/01/30 12:07:28;;;;;;;21.17;3.15;;;7.90;99.90;;;;;;5086557;28;20056;-81
2023/01/30 12:09:55;;;;;;;17.70;3.53;;;8.00;99.90;;;;;;5104425;28;20050;-80
2023/01/30 12:12:42;;;;;;;27.55;2.65;;;9.10;99.90;;;;;;5103619;28;20050;-88
2023/01/30 12:15:20;;;;;;;21.35;3.63;;;8.80;99.90;;;;;;5104108;28;20516;-81
2023/01/30 12:18:12;;;;;;;15.68;2.83;;;8.30;99.90;;;;;;5087415;28;20040;-81
2023/01/30 12:20:41;;;;;;;18.77;4.03;;;8.40;99.90;;;;;;5089752;28;20058;-80
2023/01/30 12:23:06;;;;;;;23.80;3.25;;;8.70;99.90;;;;;;5088506;27;20064;-81
2023/01/30 12:25:58;;;;;;;19.63;3.65;;;8.40;99.90;;;;;;5107167;27;20044;-81
2023/01/30 12:28:51;;;;;;;27.75;3.42;;;8.30;99.90;;;;;;5090733;27;20398;-81
2023/01/30 12:31:42;;;;;;;23.35;4.50;;;8.30;99.90;;;;;;5110615;27;20051;-80
2023/01/30 12:34:09;;;;;;;21.42;4.03;;;8.20;99.90;;;;;;5107744;27;20053;-81
2023/01/30 12:36:58;;;;;;;27.50;2.97;;;8.30;99.90;;;;;;5090610;27;20080;-81
2023/01/30 12:39:45;;;;;;;13.88;2.65;;;8.10;99.90;;;;;;5108299;27;20039;-82
2023/01/30 12:42:48;;;;;;;30.25;5.35;;;8.10;99.90;;;;;;5106535;27;20478;-82
2023/01/30 12:45:21;;;;;;;27.73;3.88;;;8.10;99.90;;;;;;5106521;27;20127;-81
2023/01/30 12:48:24;;;;;;;27.55;3.97;;;8.00;99.90;;;;;;5090869;28;20035;-82
2023/01/30 12:51:01;;;;;;;26.90;3.70;;;8.10;99.90;;;;;;5089282;27;20501;-82
2023/01/30 12:53:36;;;;;;;29.42;3.35;;;8.10;99.90;;;;;;5107270;28;20043;-82
2023/01/30 12:56:40;;;;;;;26.70;4.80;;;8.20;99.90;;;;;;5089948;28;20043;-81
2023/01/30 12:59:49;;;;;;;32.90;4.53;;;8.20;99.90;;;;;;5005029;28;20045;-81
2023/01/30 13:02:33;;;;;;;18.75;3.17;;;8.10;99.90;;;;;;4950407;28;20052;-82
2023/01/30 13:05:02;;;;;;;23.20;3.35;;;8.10;99.90;;;;;;5076874;28;20047;-80
2023/01/30 13:07:50;;;;;;;23.65;3.10;;;8.00;99.90;;;;;;5089570;28;20409;-81
2023/01/30 13:10:38;;;;;;;23.00;3.63;;;8.00;99.90;;;;;;5111310;27;20035;-82
2023/01/30 13:13:16;;;;;;;21.13;3.35;;;8.00;99.90;;;;;;5093946;27;20043;-80
2023/01/30 13:15:45;;;;;;;21.20;3.28;;;8.00;99.90;;;;;;5110239;27;20160;-80
2023/01/30 13:18:25;;;;;;;22.52;3.70;;;8.00;99.90;;;;;;5110928;27;20512;-82